Aeroporto :







RITROVATECI SU...

 
LOGIN :

Iscrizione | Disclaimer

   EN    FR    IT 

 









Sommario :    VFR   VFR Marginale   IFR   IFR Intensivo   IFR Molto Intensivo
Visibilità : 
Base nubi : 
>= 8 km
>= 3000ft
5 / 8 km
1000 / 3000 ft
1500m / 5 km
500 / 1000 ft
800 / 1500m
200 / 500 ft
< 800m
< 200 ft
Simboli :   Temporali  Nebbia  Neve Forte  Precipitazioni Forti  Vento > 20 kt






- Altitudine del aeroporto : 26 ft
- Codice IATA : CAY


SOCA - Rochambeau

ULTIMO METAR :
  • 200500Z AUTO 00000KT 9999 FEW022 23/23 Q1011

METARs OBSOLETI :
  • 200430Z AUTO 00000KT CAVOK 23/23 Q1011
  • 200400Z AUTO 24002KT CAVOK 23/23 Q1012
  • 200330Z AUTO 00000KT CAVOK 23/23 Q1012
  • 200300Z AUTO 00000KT CAVOK 24/23 Q1012
  • 200230Z AUTO 25002KT CAVOK 24/23 Q1013

TAF TAF SOCA
Valido dal 19 a 18 ore il 20 a 18 ore UTC


191600Z 1918/2018 12010KT 9999 SCT025
PROB30
TEMPO 1918/1922 4000 SHRA SCT020TCU
FM200000 VRB02KT 9999 SCT020
BECMG 2007/2009 BKN015
PROB30
TEMPO 2007/2018 2000 SHRA SCT008 BKN012TCU
PROB30
TEMPO 2015/2018 1000 TSRA BKN010CB
FIR SOOO / Sudamerica



MetMap, La meteo Aeronautica in un colpo d'occhio ! - Copyright ORBIFLY Dicembre 2007 - Disclaimer

ORBIFLY MET'MAP TEAM :

Programmazione e sviluppo : Alexandra Zaïnal
Concezione : Baudouin d'Aumeries
Aiuto per la programmazione : Marc-Olivier Méhu
Supporto tecnico e logistico : Manuel Goepfert
Aiuto per la traduzione : Arnaldo La Scala

Contatto : metmap@orbifly.com




FONTI E CREDITI :

   NOAA